createdAt,value
2019-04-27T00:09:50.325Z,100.0000
2019-04-27T00:20:04.444Z,100.0000
2019-04-27T00:36:23.782Z,100.0000
2019-04-27T00:52:43.622Z,100.0000
2019-04-27T01:00:54.122Z,99.2386
2019-04-27T01:17:14.119Z,98.9914
2019-04-27T01:25:24.601Z,99.0249
2019-04-27T01:49:53.990Z,99.2477
2019-04-27T01:58:04.675Z,99.1424
2019-04-27T02:14:23.814Z,98.8327
2019-04-27T02:30:44.106Z,97.4487
2019-04-27T02:36:52.887Z,97.3022
2019-04-27T03:19:43.420Z,96.3104
2019-04-27T03:27:53.963Z,96.5301
2019-04-27T03:32:04.767Z,96.8353
2019-04-27T03:48:25.917Z,97.1374
2019-04-27T04:02:43.943Z,96.1303
2019-04-27T04:19:03.967Z,97.1099
2019-04-27T04:43:33.314Z,95.6497
2019-04-27T04:53:45.132Z,95.3399
2019-04-27T04:59:54.204Z,95.5810
2019-04-27T05:02:01.839Z,96.4324
2019-04-27T05:36:53.495Z,94.0215
2019-04-27T05:45:03.920Z,93.5897
2019-04-27T05:51:13.489Z,94.0398
2019-04-27T06:21:53.870Z,91.8502
2019-04-27T06:30:05.031Z,90.4585
2019-04-27T06:36:13.843Z,92.5460
2019-04-27T06:46:28.791Z,93.7636
2019-04-27T06:54:40.366Z,93.7652
2019-04-27T06:56:44.690Z,94.2855
2019-04-27T07:02:55.313Z,94.8898
2019-04-27T07:07:01.680Z,93.4035
2019-04-27T07:13:11.285Z,94.9996
2019-04-27T07:15:15.566Z,94.1619
2019-04-27T07:17:19.206Z,94.6624
2019-04-27T07:19:23.237Z,93.8796
2019-04-27T07:27:33.764Z,94.6380
2019-04-27T07:37:48.847Z,94.4656
2019-04-27T07:50:04.170Z,96.7346
2019-04-27T07:54:10.977Z,96.4340
2019-04-27T07:56:15.282Z,96.7269
2019-04-27T08:00:22.004Z,97.0886
2019-04-27T08:02:25.402Z,96.7315
2019-04-27T08:06:31.236Z,97.0336
2019-04-27T08:08:34.698Z,97.4960
2019-04-27T08:10:39.177Z,97.8988
2019-04-27T08:14:46.168Z,97.3251
2019-04-27T08:29:03.696Z,97.1145
2019-04-27T08:45:24.044Z,93.2937
2019-04-27T08:53:34.664Z,94.4839
2019-04-27T08:59:43.445Z,92.4559
2019-04-27T09:16:03.332Z,92.2209
2019-04-27T09:24:14.415Z,90.7423
2019-04-27T09:48:44.460Z,84.3305
2019-04-27T10:17:24.165Z,81.4588
2019-04-27T10:33:45.849Z,78.3612
2019-04-27T11:22:43.744Z,74.8669
2019-04-27T11:30:55.049Z,74.0185
2019-04-27T11:37:03.419Z,74.8791
2019-04-27T11:53:25.997Z,76.7941
2019-04-27T11:59:34.453Z,73.8125
2019-04-27T12:05:42.526Z,72.0745
2019-04-27T12:07:47.848Z,74.5693
2019-04-27T12:11:55.619Z,72.8283
2019-04-27T12:43:45.886Z,82.3011
2019-04-27T12:48:13.296Z,79.1486
2019-04-27T13:09:25.650Z,71.2398
2019-04-27T13:23:45.727Z,69.5796
2019-04-27T13:29:53.942Z,71.8074
2019-04-27T13:36:07.289Z,69.3950
2019-04-27T13:40:13.280Z,66.7460
2019-04-27T13:48:23.769Z,69.1951
2019-04-27T13:56:34.876Z,68.2200
2019-04-27T14:04:46.893Z,72.7321
2019-04-27T14:27:13.898Z,85.2628
2019-04-27T14:35:24.360Z,77.0840
2019-04-27T14:59:54.341Z,81.0574
2019-04-27T15:06:03.912Z,89.1875
2019-04-27T15:08:09.658Z,90.4417
2019-04-27T15:10:16.129Z,92.3537
2019-04-27T15:12:25.195Z,93.3425
2019-04-27T15:14:31.062Z,94.9767
2019-04-27T15:16:37.894Z,95.1278
2019-04-27T15:18:44.564Z,95.2575
2019-04-27T15:20:48.693Z,95.2422
2019-04-27T15:22:56.672Z,95.7137
2019-04-27T15:25:12.894Z,95.0729
2019-04-27T15:27:10.271Z,91.4214
2019-04-27T15:29:14.568Z,90.7073
2019-04-27T15:31:26.347Z,92.5734
2019-04-27T15:33:28.991Z,91.8685
2019-04-27T15:35:35.417Z,90.3593
2019-04-27T15:37:42.185Z,91.4977
2019-04-27T15:39:45.620Z,91.9142
2019-04-27T15:41:49.953Z,92.3735
2019-04-27T15:43:54.052Z,92.3079
2019-04-27T15:45:58.714Z,92.3720
2019-04-27T15:48:03.045Z,93.0510
2019-04-27T15:50:07.919Z,93.4981
2019-04-27T15:52:11.477Z,93.3654
2019-04-27T15:54:15.202Z,95.4406
2019-04-27T15:56:21.561Z,94.3465
2019-04-27T15:58:26.126Z,94.2321
2019-04-27T16:00:30.473Z,94.1848
2019-04-27T16:02:34.838Z,92.1752
2019-04-27T16:04:39.996Z,93.5454
2019-04-27T16:06:48.759Z,93.1502
2019-04-27T16:08:52.206Z,94.5754
2019-04-27T16:10:56.402Z,94.1299
2019-04-27T16:13:06.609Z,93.3303
2019-04-27T16:15:08.507Z,93.2418
2019-04-27T16:17:11.917Z,91.3344
2019-04-27T16:19:15.332Z,92.2316
2019-04-27T16:21:20.072Z,93.6721
2019-04-27T16:23:28.220Z,93.6599
2019-04-27T16:25:45.312Z,93.2052
2019-04-27T16:27:41.743Z,92.0073
2019-04-27T16:29:45.759Z,93.3303
2019-04-27T16:31:49.174Z,92.2667
2019-04-27T16:33:54.114Z,93.0861
2019-04-27T16:36:06.681Z,93.6629
2019-04-27T16:38:10.736Z,93.8369
2019-04-27T16:40:17.616Z,92.3919
2019-04-27T16:42:23.181Z,92.5872
2019-04-27T16:44:27.555Z,90.7149
2019-04-27T16:46:34.803Z,89.9550
2019-04-27T16:48:40.804Z,90.5150
2019-04-27T16:50:44.869Z,89.3523
2019-04-27T16:52:56.547Z,90.4768
2019-04-27T16:54:59.002Z,90.2525
2019-04-27T16:57:05.475Z,86.7246
2019-04-27T16:59:33.965Z,86.4988
2019-04-27T17:01:19.434Z,86.7552
2019-04-27T17:03:23.857Z,84.1703
2019-04-27T17:05:30.922Z,84.1184
2019-04-27T17:07:37.530Z,82.4887
2019-04-27T17:09:46.178Z,81.4878
2019-04-27T17:11:51.796Z,83.4455
2019-04-27T17:13:56.068Z,83.6576
2019-04-27T17:16:00.200Z,82.7405
2019-04-27T17:18:04.244Z,84.1978
2019-04-27T17:20:08.524Z,83.8529
2019-04-27T17:22:14.755Z,83.3951
2019-04-27T17:24:19.638Z,84.2298
2019-04-27T17:26:24.141Z,85.0706
2019-04-27T17:28:28.346Z,84.2786
2019-04-27T17:30:39.828Z,83.4791
2019-04-27T17:32:40.804Z,83.5142
2019-04-27T17:34:44.866Z,83.1998
2019-04-27T17:36:54.499Z,82.3102
2019-04-27T17:38:58.440Z,82.9618
2019-04-27T17:41:04.728Z,82.7497
2019-04-27T17:43:11.157Z,83.7262
2019-04-27T17:45:15.254Z,85.1133
2019-04-27T17:47:20.071Z,86.5995
2019-04-27T17:49:28.099Z,88.2170
2019-04-27T17:51:35.321Z,88.7648
2019-04-27T17:53:40.690Z,88.2811
2019-04-27T17:55:44.723Z,88.0598
2019-04-27T17:57:49.117Z,87.3381
2019-04-27T17:59:59.002Z,86.0639
2019-04-27T18:02:04.617Z,86.7506
2019-04-27T18:04:10.639Z,86.4408
2019-04-27T18:06:14.322Z,86.6697
2019-04-27T18:08:24.595Z,86.4088
2019-04-27T18:10:28.162Z,87.3182
2019-04-27T18:12:32.370Z,86.7781
2019-04-27T18:14:39.454Z,87.6890
2019-04-27T18:16:44.626Z,87.1488
2019-04-27T18:18:48.995Z,86.8147
2019-04-27T18:20:52.572Z,86.3951
2019-04-27T18:22:57.995Z,86.4591
2019-04-27T18:25:06.239Z,87.9179
2019-04-27T18:27:10.957Z,86.3676
2019-04-27T18:29:15.270Z,87.5074
2019-04-27T18:31:18.832Z,87.9057
2019-04-27T18:33:22.993Z,87.9316
2019-04-27T18:35:27.960Z,88.6229
2019-04-27T18:37:33.839Z,88.8289
2019-04-27T18:39:40.821Z,89.6941
2019-04-27T18:41:50.576Z,89.2836
2019-04-27T18:43:55.813Z,89.9184
2019-04-27T18:46:02.373Z,88.9860
2019-04-27T18:48:13.350Z,89.6819
2019-04-27T18:50:17.764Z,89.9641
2019-04-27T18:52:22.215Z,90.0114
2019-04-27T18:54:25.712Z,87.6982
2019-04-27T18:56:33.463Z,87.8920
2019-04-27T18:58:38.956Z,88.1666
2019-04-27T19:00:42.508Z,88.1972
2019-04-27T19:02:49.990Z,89.2241
2019-04-27T19:04:54.485Z,88.2200
2019-04-27T19:06:58.512Z,89.2042
2019-04-27T19:09:04.825Z,88.6839
2019-04-27T19:11:09.278Z,87.6173
2019-04-27T19:13:13.866Z,88.1422
2019-04-27T19:15:18.452Z,89.9336
2019-04-27T19:17:22.051Z,89.0959
2019-04-27T19:19:28.046Z,89.9336
2019-04-27T19:21:32.654Z,90.7927
2019-04-27T19:23:40.259Z,90.8675
2019-04-27T19:25:44.587Z,89.8055
2019-04-27T19:27:58.120Z,91.5023
2019-04-27T19:30:01.691Z,90.9957
2019-04-27T19:32:07.900Z,91.8959
2019-04-27T19:34:12.296Z,91.7311
2019-04-27T19:36:16.762Z,92.1904
2019-04-27T19:38:21.143Z,92.4605
2019-04-27T19:40:24.577Z,92.7794
2019-04-27T19:42:28.957Z,92.5002
2019-04-27T19:44:32.384Z,93.1823
2019-04-27T19:46:35.802Z,93.0510
2019-04-27T19:48:39.841Z,92.3537
2019-04-27T19:50:43.228Z,92.0073
2019-04-27T19:52:47.645Z,92.5566
2019-04-27T19:54:52.199Z,92.7565
2019-04-27T19:56:56.357Z,92.3537
2019-04-27T19:59:00.504Z,93.1014
2019-04-27T20:01:12.031Z,93.2296
2019-04-27T20:03:13.123Z,93.0877
2019-04-27T20:05:18.648Z,93.4035
2019-04-27T20:07:22.266Z,93.7957
2019-04-27T20:09:26.609Z,94.2168
2019-04-27T20:11:30.946Z,94.3603
2019-04-27T20:13:35.607Z,95.2514
2019-04-27T20:15:40.643Z,95.5581
2019-04-27T20:17:46.918Z,95.2026
2019-04-27T20:19:51.578Z,94.8867
2019-04-27T20:21:55.804Z,94.7036
2019-04-27T20:23:59.259Z,94.9813
2019-04-27T20:26:03.223Z,93.5180
2019-04-27T20:28:06.943Z,95.1614
2019-04-27T20:30:11.273Z,96.0479
2019-04-27T20:32:14.451Z,96.2921
2019-04-27T20:34:17.913Z,96.7407
2019-04-27T20:36:21.767Z,95.7748
2019-04-27T20:38:25.845Z,95.0546
2019-04-27T20:40:29.302Z,95.5535
2019-04-27T20:42:32.752Z,96.0677
2019-04-27T20:44:35.854Z,95.5993
2019-04-27T20:46:41.370Z,95.9716
2019-04-27T20:48:46.116Z,96.4004
2019-04-27T20:50:51.307Z,95.4986
2019-04-27T20:52:57.863Z,94.6838
2019-04-27T20:55:01.948Z,95.6649
2019-04-27T20:57:05.410Z,96.0479
2019-04-27T20:59:10.819Z,95.1461
2019-04-27T21:01:14.982Z,95.0271
2019-04-27T21:03:18.419Z,94.3725
2019-04-27T21:05:21.821Z,93.8888
2019-04-27T21:07:26.209Z,94.7219
2019-04-27T21:09:29.672Z,95.1934
2019-04-27T21:11:33.739Z,94.2077
2019-04-27T21:13:38.175Z,93.8338
2019-04-27T21:15:42.217Z,91.3115
2019-04-27T21:17:45.740Z,93.4997
2019-04-27T21:19:49.167Z,94.7173
2019-04-27T21:21:53.604Z,95.4345
2019-04-27T21:23:57.027Z,94.7311
2019-04-27T21:26:02.122Z,94.4823
2019-04-27T21:28:15.322Z,94.6761
2019-04-27T21:30:15.598Z,94.6487
2019-04-27T21:32:19.858Z,94.8730
2019-04-27T21:34:23.972Z,94.3832
2019-04-27T21:36:27.668Z,94.1482
2019-04-27T21:38:32.198Z,95.4208
2019-04-27T21:40:36.450Z,94.7890
2019-04-27T21:42:41.229Z,94.6258
2019-04-27T21:44:45.482Z,94.7112
2019-04-27T21:46:48.883Z,94.4106
2019-04-27T21:48:53.235Z,94.1573
2019-04-27T21:50:57.516Z,93.9162
2019-04-27T21:53:02.500Z,92.7306
2019-04-27T21:55:07.265Z,93.3074
2019-04-27T21:57:12.798Z,90.6432
2019-04-27T21:59:16.996Z,90.2953
2019-04-27T22:01:21.600Z,91.7739
2019-04-27T22:03:25.327Z,92.1248
2019-04-27T22:05:31.379Z,92.1477
2019-04-27T22:07:37.502Z,93.0266
2019-04-27T22:09:43.273Z,93.0419
2019-04-27T22:11:47.762Z,93.1319
2019-04-27T22:13:51.961Z,93.2891
2019-04-27T22:15:56.276Z,93.4478
2019-04-27T22:18:00.677Z,91.5450
2019-04-27T22:20:06.641Z,90.8858
2019-04-27T22:22:12.587Z,91.2459
2019-04-27T22:24:16.863Z,89.0394
2019-04-27T22:26:21.412Z,88.0415
2019-04-27T22:28:25.547Z,88.2399
2019-04-27T22:30:29.128Z,88.6320
2019-04-27T22:32:33.453Z,89.6040
2019-04-27T22:34:37.790Z,87.1809
2019-04-27T22:36:41.928Z,85.5894
2019-04-27T22:38:46.146Z,86.5904
2019-04-27T22:40:50.875Z,86.9581
2019-04-27T22:42:55.446Z,86.9993
2019-04-27T22:45:01.251Z,86.8437
2019-04-27T22:47:04.834Z,86.6545
2019-04-27T22:49:08.249Z,86.2562
2019-04-27T22:51:12.217Z,86.8574
2019-04-27T22:53:16.433Z,87.3915
2019-04-27T22:55:21.978Z,87.9637
2019-04-27T22:57:26.239Z,86.3935
2019-04-27T22:59:31.651Z,88.8060
2019-04-27T23:01:35.831Z,88.6198
2019-04-27T23:03:41.436Z,87.1870
2019-04-27T23:05:45.530Z,87.7165
2019-04-27T23:07:51.253Z,87.8264
2019-04-27T23:09:55.200Z,87.4693
2019-04-27T23:11:59.556Z,88.1987
2019-04-27T23:14:02.974Z,89.1188
2019-04-27T23:16:07.009Z,87.9286
2019-04-27T23:18:11.366Z,89.4240
2019-04-27T23:20:15.385Z,90.2480
2019-04-27T23:22:21.283Z,89.0715
2019-04-27T23:24:25.512Z,86.8788
2019-04-27T23:26:28.499Z,87.5288
2019-04-27T23:28:31.888Z,87.1595
2019-04-27T23:30:35.476Z,87.1000
2019-04-27T23:32:41.250Z,87.8218
2019-04-27T23:34:45.434Z,85.5146
2019-04-27T23:36:49.461Z,85.6306
2019-04-27T23:38:53.828Z,87.3365
2019-04-27T23:40:57.261Z,87.6432
2019-04-27T23:43:01.686Z,86.6270
2019-04-27T23:45:06.053Z,87.6707
2019-04-27T23:47:09.472Z,88.1346
2019-04-27T23:49:12.967Z,88.3177
2019-04-27T23:51:16.968Z,89.7002
2019-04-27T23:53:21.877Z,89.7734
2019-04-27T23:55:26.524Z,88.5039
2019-04-27T23:57:31.661Z,88.6274
2019-04-27T23:59:35.725Z,88.7419
